sensor_id;sensor_type;location;lat;lon;timestamp;pressure;altitude;pressure_sealevel;temperature;humidity
40940;BME280;26666;50.156;7.700;2023-02-11T00:00:53;102488.16;;;2.63;100.00
40940;BME280;26666;50.156;7.700;2023-02-11T00:05:59;102475.44;;;2.89;100.00
40940;BME280;26666;50.156;7.700;2023-02-11T00:11:00;102484.06;;;2.94;100.00
40940;BME280;26666;50.156;7.700;2023-02-11T00:16:10;102481.06;;;3.13;100.00
40940;BME280;26666;50.156;7.700;2023-02-11T00:21:16;102462.63;;;2.79;100.00
40940;BME280;26666;50.156;7.700;2023-02-11T00:26:24;102462.75;;;2.71;100.00
40940;BME280;26666;50.156;7.700;2023-02-11T00:31:26;102461.16;;;2.64;100.00
40940;BME280;26666;50.156;7.700;2023-02-11T00:36:28;102458.28;;;2.76;100.00
40940;BME280;26666;50.156;7.700;2023-02-11T00:41:30;102452.28;;;2.72;100.00
40940;BME280;26666;50.156;7.700;2023-02-11T00:46:31;102450.09;;;2.96;100.00
40940;BME280;26666;50.156;7.700;2023-02-11T00:51:33;102450.69;;;3.07;100.00
40940;BME280;26666;50.156;7.700;2023-02-11T00:56:35;102453.13;;;3.16;100.00
40940;BME280;26666;50.156;7.700;2023-02-11T01:01:36;102445.13;;;3.26;100.00
40940;BME280;26666;50.156;7.700;2023-02-11T01:06:38;102432.00;;;3.29;100.00
40940;BME280;26666;50.156;7.700;2023-02-11T01:11:39;102434.63;;;3.27;100.00
40940;BME280;26666;50.156;7.700;2023-02-11T01:16:41;102434.66;;;3.26;100.00
40940;BME280;26666;50.156;7.700;2023-02-11T01:21:43;102430.94;;;3.36;100.00
40940;BME280;26666;50.156;7.700;2023-02-11T01:26:44;102432.56;;;3.42;100.00
40940;BME280;26666;50.156;7.700;2023-02-11T01:31:46;102432.72;;;3.35;100.00
40940;BME280;26666;50.156;7.700;2023-02-11T01:36:47;102420.69;;;3.27;100.00
40940;BME280;26666;50.156;7.700;2023-02-11T01:41:49;102414.22;;;3.04;100.00
40940;BME280;26666;50.156;7.700;2023-02-11T01:46:51;102405.84;;;2.88;100.00
40940;BME280;26666;50.156;7.700;2023-02-11T01:52:09;102403.00;;;2.99;100.00
40940;BME280;26666;50.156;7.700;2023-02-11T01:57:15;102400.66;;;2.87;100.00
40940;BME280;26666;50.156;7.700;2023-02-11T02:02:20;102387.75;;;2.79;100.00
40940;BME280;26666;50.156;7.700;2023-02-11T02:07:37;102382.09;;;2.99;100.00
40940;BME280;26666;50.156;7.700;2023-02-11T02:12:41;102364.75;;;2.96;100.00
40940;BME280;26666;50.156;7.700;2023-02-11T02:17:54;102364.00;;;2.90;100.00
40940;BME280;26666;50.156;7.700;2023-02-11T02:23:19;102364.59;;;3.04;100.00
40940;BME280;26666;50.156;7.700;2023-02-11T02:34:02;102379.84;;;3.23;100.00
40940;BME280;26666;50.156;7.700;2023-02-11T02:39:12;102392.81;;;3.27;100.00
40940;BME280;26666;50.156;7.700;2023-02-11T02:44:17;102397.97;;;3.30;100.00
40940;BME280;26666;50.156;7.700;2023-02-11T02:49:19;102399.28;;;3.09;100.00
40940;BME280;26666;50.156;7.700;2023-02-11T03:05:10;102383.78;;;2.60;100.00
40940;BME280;26666;50.156;7.700;2023-02-11T03:15:21;102377.56;;;2.67;100.00
40940;BME280;26666;50.156;7.700;2023-02-11T03:20:26;102389.53;;;2.77;100.00
40940;BME280;26666;50.156;7.700;2023-02-11T03:25:35;102380.88;;;2.75;100.00
40940;BME280;26666;50.156;7.700;2023-02-11T03:30:48;102378.16;;;2.80;100.00
40940;BME280;26666;50.156;7.700;2023-02-11T03:35:57;102368.66;;;2.77;100.00
40940;BME280;26666;50.156;7.700;2023-02-11T03:41:02;102348.09;;;2.62;100.00
40940;BME280;26666;50.156;7.700;2023-02-11T03:46:06;102329.00;;;2.58;100.00
40940;BME280;26666;50.156;7.700;2023-02-11T03:51:11;102303.84;;;2.55;100.00
40940;BME280;26666;50.156;7.700;2023-02-11T03:56:18;102299.75;;;2.42;100.00
40940;BME280;26666;50.156;7.700;2023-02-11T04:01:21;102307.31;;;2.56;100.00
40940;BME280;26666;50.156;7.700;2023-02-11T04:06:22;102307.19;;;2.62;100.00
40940;BME280;26666;50.156;7.700;2023-02-11T04:11:24;102290.03;;;2.50;100.00
40940;BME280;26666;50.156;7.700;2023-02-11T04:16:26;102305.59;;;2.55;100.00
40940;BME280;26666;50.156;7.700;2023-02-11T04:21:27;102322.25;;;2.49;100.00
40940;BME280;26666;50.156;7.700;2023-02-11T04:26:29;102319.97;;;2.32;100.00
40940;BME280;26666;50.156;7.700;2023-02-11T04:31:30;102325.97;;;2.38;100.00
40940;BME280;26666;50.156;7.700;2023-02-11T04:36:32;102335.84;;;2.20;100.00
40940;BME280;26666;50.156;7.700;2023-02-11T04:41:33;102338.47;;;2.20;100.00
40940;BME280;26666;50.156;7.700;2023-02-11T04:46:35;102336.03;;;2.09;100.00
40940;BME280;26666;50.156;7.700;2023-02-11T04:51:37;102332.75;;;1.98;100.00
40940;BME280;26666;50.156;7.700;2023-02-11T04:56:38;102341.50;;;1.97;100.00
40940;BME280;26666;50.156;7.700;2023-02-11T05:01:40;102311.88;;;2.01;100.00
40940;BME280;26666;50.156;7.700;2023-02-11T05:06:42;102306.06;;;1.85;100.00
40940;BME280;26666;50.156;7.700;2023-02-11T05:11:43;102298.56;;;1.67;100.00
40940;BME280;26666;50.156;7.700;2023-02-11T05:16:45;102282.81;;;1.73;100.00
40940;BME280;26666;50.156;7.700;2023-02-11T05:21:46;102284.19;;;1.92;100.00
40940;BME280;26666;50.156;7.700;2023-02-11T05:27:02;102281.44;;;2.00;100.00
40940;BME280;26666;50.156;7.700;2023-02-11T05:32:04;102290.25;;;1.94;100.00
40940;BME280;26666;50.156;7.700;2023-02-11T05:37:05;102316.63;;;1.77;100.00
40940;BME280;26666;50.156;7.700;2023-02-11T05:42:07;102336.34;;;1.92;100.00
40940;BME280;26666;50.156;7.700;2023-02-11T05:47:08;102309.56;;;1.83;100.00
40940;BME280;26666;50.156;7.700;2023-02-11T05:52:10;102326.13;;;1.80;100.00
40940;BME280;26666;50.156;7.700;2023-02-11T05:57:12;102324.97;;;1.96;100.00
40940;BME280;26666;50.156;7.700;2023-02-11T06:02:13;102325.88;;;1.95;100.00
40940;BME280;26666;50.156;7.700;2023-02-11T06:07:15;102327.88;;;1.80;100.00
40940;BME280;26666;50.156;7.700;2023-02-11T06:12:17;102324.25;;;1.87;100.00
40940;BME280;26666;50.156;7.700;2023-02-11T06:17:18;102334.69;;;1.87;100.00
40940;BME280;26666;50.156;7.700;2023-02-11T06:22:20;102338.16;;;1.89;100.00
40940;BME280;26666;50.156;7.700;2023-02-11T06:27:21;102332.66;;;2.04;100.00
40940;BME280;26666;50.156;7.700;2023-02-11T06:32:23;102337.00;;;2.04;100.00
40940;BME280;26666;50.156;7.700;2023-02-11T06:37:43;102334.06;;;2.22;100.00
40940;BME280;26666;50.156;7.700;2023-02-11T06:42:45;102325.38;;;2.22;100.00
40940;BME280;26666;50.156;7.700;2023-02-11T06:47:46;102324.44;;;2.26;100.00
40940;BME280;26666;50.156;7.700;2023-02-11T06:52:48;102322.72;;;2.25;100.00
40940;BME280;26666;50.156;7.700;2023-02-11T06:57:49;102321.72;;;2.32;100.00
40940;BME280;26666;50.156;7.700;2023-02-11T07:02:51;102313.50;;;2.50;100.00
40940;BME280;26666;50.156;7.700;2023-02-11T07:07:52;102309.34;;;2.42;100.00
40940;BME280;26666;50.156;7.700;2023-02-11T07:12:54;102316.63;;;2.26;100.00
40940;BME280;26666;50.156;7.700;2023-02-11T07:17:58;102311.84;;;2.46;100.00
40940;BME280;26666;50.156;7.700;2023-02-11T07:23:00;102314.41;;;2.49;100.00
40940;BME280;26666;50.156;7.700;2023-02-11T07:28:02;102333.81;;;2.36;100.00
40940;BME280;26666;50.156;7.700;2023-02-11T07:33:04;102322.16;;;2.52;100.00
40940;BME280;26666;50.156;7.700;2023-02-11T07:38:05;102334.03;;;2.69;100.00
40940;BME280;26666;50.156;7.700;2023-02-11T07:43:07;102335.22;;;2.94;100.00
40940;BME280;26666;50.156;7.700;2023-02-11T07:48:08;102337.91;;;2.90;100.00
40940;BME280;26666;50.156;7.700;2023-02-11T07:53:10;102354.38;;;3.32;100.00
40940;BME280;26666;50.156;7.700;2023-02-11T07:58:11;102362.81;;;3.44;100.00
40940;BME280;26666;50.156;7.700;2023-02-11T08:03:13;102370.75;;;3.41;100.00
40940;BME280;26666;50.156;7.700;2023-02-11T08:08:14;102377.00;;;3.33;100.00
40940;BME280;26666;50.156;7.700;2023-02-11T08:13:16;102384.19;;;3.24;100.00
40940;BME280;26666;50.156;7.700;2023-02-11T08:18:17;102378.19;;;3.20;100.00
40940;BME280;26666;50.156;7.700;2023-02-11T08:23:19;102375.09;;;3.40;100.00
40940;BME280;26666;50.156;7.700;2023-02-11T08:28:20;102376.53;;;3.53;100.00
40940;BME280;26666;50.156;7.700;2023-02-11T08:33:22;102364.56;;;3.79;100.00
40940;BME280;26666;50.156;7.700;2023-02-11T08:38:23;102367.19;;;3.79;100.00
40940;BME280;26666;50.156;7.700;2023-02-11T08:43:25;102375.09;;;3.78;100.00
40940;BME280;26666;50.156;7.700;2023-02-11T08:48:26;102375.47;;;3.97;100.00
40940;BME280;26666;50.156;7.700;2023-02-11T08:53:28;102359.34;;;4.13;100.00
40940;BME280;26666;50.156;7.700;2023-02-11T08:58:29;102370.09;;;4.35;100.00
40940;BME280;26666;50.156;7.700;2023-02-11T09:03:31;102373.41;;;4.42;100.00
40940;BME280;26666;50.156;7.700;2023-02-11T09:08:34;102370.28;;;4.61;100.00
40940;BME280;26666;50.156;7.700;2023-02-11T09:13:36;102385.00;;;4.65;100.00
40940;BME280;26666;50.156;7.700;2023-02-11T09:18:37;102384.38;;;4.86;100.00
40940;BME280;26666;50.156;7.700;2023-02-11T09:23:39;102382.13;;;5.04;100.00
40940;BME280;26666;50.156;7.700;2023-02-11T09:28:40;102389.16;;;5.02;100.00
40940;BME280;26666;50.156;7.700;2023-02-11T09:33:43;102392.72;;;5.01;100.00
40940;BME280;26666;50.156;7.700;2023-02-11T09:38:47;102389.47;;;4.92;100.00
40940;BME280;26666;50.156;7.700;2023-02-11T09:43:59;102395.44;;;5.26;100.00
40940;BME280;26666;50.156;7.700;2023-02-11T09:49:03;102404.94;;;5.30;100.00
40940;BME280;26666;50.156;7.700;2023-02-11T09:54:53;102411.94;;;5.29;100.00
40940;BME280;26666;50.156;7.700;2023-02-11T09:59:46;102414.56;;;5.29;100.00
40940;BME280;26666;50.156;7.700;2023-02-11T10:10:39;102441.72;;;5.27;100.00
40940;BME280;26666;50.156;7.700;2023-02-11T10:15:57;102452.69;;;5.40;100.00
40940;BME280;26666;50.156;7.700;2023-02-11T10:21:11;102456.22;;;5.39;100.00
40940;BME280;26666;50.156;7.700;2023-02-11T10:26:17;102470.19;;;5.39;100.00
40940;BME280;26666;50.156;7.700;2023-02-11T10:31:33;102470.25;;;5.66;100.00
40940;BME280;26666;50.156;7.700;2023-02-11T10:36:38;102467.69;;;5.64;100.00
40940;BME280;26666;50.156;7.700;2023-02-11T10:42:04;102457.25;;;5.63;100.00
40940;BME280;26666;50.156;7.700;2023-02-11T10:47:19;102452.69;;;5.68;100.00
40940;BME280;26666;50.156;7.700;2023-02-11T10:52:24;102448.59;;;5.59;100.00
40940;BME280;26666;50.156;7.700;2023-02-11T10:57:30;102449.56;;;5.57;100.00
40940;BME280;26666;50.156;7.700;2023-02-11T11:02:35;102434.81;;;5.52;100.00
40940;BME280;26666;50.156;7.700;2023-02-11T11:07:37;102428.03;;;5.73;100.00
40940;BME280;26666;50.156;7.700;2023-02-11T11:17:47;102416.41;;;5.82;100.00
40940;BME280;26666;50.156;7.700;2023-02-11T11:22:51;102411.63;;;5.95;100.00
40940;BME280;26666;50.156;7.700;2023-02-11T11:28:01;102399.69;;;5.85;100.00
40940;BME280;26666;50.156;7.700;2023-02-11T11:33:03;102412.56;;;5.92;100.00
40940;BME280;26666;50.156;7.700;2023-02-11T11:38:05;102404.63;;;5.96;100.00
40940;BME280;26666;50.156;7.700;2023-02-11T11:48:17;102400.56;;;6.12;100.00
40940;BME280;26666;50.156;7.700;2023-02-11T11:58:50;102396.78;;;6.21;100.00
40940;BME280;26666;50.156;7.700;2023-02-11T12:25:26;102400.47;;;6.15;100.00
40940;BME280;26666;50.156;7.700;2023-02-11T12:30:56;102395.00;;;6.21;100.00
40940;BME280;26666;50.156;7.700;2023-02-11T12:36:07;102398.31;;;6.26;100.00
40940;BME280;26666;50.156;7.700;2023-02-11T12:47:19;102406.19;;;6.26;100.00
40940;BME280;26666;50.156;7.700;2023-02-11T12:52:43;102401.69;;;6.30;100.00
40940;BME280;26666;50.156;7.700;2023-02-11T12:57:50;102381.94;;;6.45;100.00
40940;BME280;26666;50.156;7.700;2023-02-11T13:08:24;102380.72;;;6.54;100.00
40940;BME280;26666;50.156;7.700;2023-02-11T13:13:46;102365.56;;;6.62;100.00
40940;BME280;26666;50.156;7.700;2023-02-11T13:19:23;102344.66;;;6.59;100.00
40940;BME280;26666;50.156;7.700;2023-02-11T13:30:27;102359.00;;;6.74;100.00
40940;BME280;26666;50.156;7.700;2023-02-11T13:35:38;102348.41;;;6.75;100.00
40940;BME280;26666;50.156;7.700;2023-02-11T13:40:40;102357.16;;;6.76;100.00
40940;BME280;26666;50.156;7.700;2023-02-11T13:45:43;102352.63;;;6.56;100.00
40940;BME280;26666;50.156;7.700;2023-02-11T13:50:48;102340.19;;;6.61;100.00
40940;BME280;26666;50.156;7.700;2023-02-11T13:56:03;102345.91;;;6.48;100.00
40940;BME280;26666;50.156;7.700;2023-02-11T14:01:05;102341.50;;;6.72;100.00
40940;BME280;26666;50.156;7.700;2023-02-11T14:16:32;102343.59;;;6.86;100.00
40940;BME280;26666;50.156;7.700;2023-02-11T14:21:40;102346.56;;;6.54;100.00
40940;BME280;26666;50.156;7.700;2023-02-11T14:26:49;102341.03;;;6.61;100.00
40940;BME280;26666;50.156;7.700;2023-02-11T14:37:42;102349.53;;;6.69;100.00
40940;BME280;26666;50.156;7.700;2023-02-11T14:42:51;102338.13;;;6.69;100.00
40940;BME280;26666;50.156;7.700;2023-02-11T14:53:02;102349.91;;;6.59;100.00
40940;BME280;26666;50.156;7.700;2023-02-11T14:58:15;102344.28;;;6.69;100.00
40940;BME280;26666;50.156;7.700;2023-02-11T15:03:47;102351.84;;;6.54;100.00
40940;BME280;26666;50.156;7.700;2023-02-11T15:08:51;102361.97;;;6.64;100.00
40940;BME280;26666;50.156;7.700;2023-02-11T15:13:55;102357.56;;;6.65;100.00
40940;BME280;26666;50.156;7.700;2023-02-11T15:19:00;102361.44;;;6.55;100.00
40940;BME280;26666;50.156;7.700;2023-02-11T15:24:21;102367.78;;;6.72;100.00
40940;BME280;26666;50.156;7.700;2023-02-11T15:29:25;102369.84;;;6.64;100.00
40940;BME280;26666;50.156;7.700;2023-02-11T15:34:27;102389.22;;;6.62;100.00
40940;BME280;26666;50.156;7.700;2023-02-11T15:39:31;102380.66;;;6.55;100.00
40940;BME280;26666;50.156;7.700;2023-02-11T15:44:33;102384.84;;;6.61;100.00
40940;BME280;26666;50.156;7.700;2023-02-11T15:49:34;102383.38;;;6.77;100.00
40940;BME280;26666;50.156;7.700;2023-02-11T15:54:36;102388.75;;;6.74;100.00
40940;BME280;26666;50.156;7.700;2023-02-11T15:59:40;102388.19;;;6.89;100.00
40940;BME280;26666;50.156;7.700;2023-02-11T16:04:54;102404.28;;;6.80;100.00
40940;BME280;26666;50.156;7.700;2023-02-11T16:09:57;102407.50;;;6.63;100.00
40940;BME280;26666;50.156;7.700;2023-02-11T16:15:28;102420.50;;;6.68;100.00
40940;BME280;26666;50.156;7.700;2023-02-11T16:20:30;102424.28;;;6.59;100.00
40940;BME280;26666;50.156;7.700;2023-02-11T16:25:34;102437.28;;;6.39;100.00
40940;BME280;26666;50.156;7.700;2023-02-11T16:30:37;102432.31;;;6.56;100.00
40940;BME280;26666;50.156;7.700;2023-02-11T16:35:39;102435.28;;;6.45;100.00
40940;BME280;26666;50.156;7.700;2023-02-11T16:40:41;102444.16;;;6.43;100.00
40940;BME280;26666;50.156;7.700;2023-02-11T16:45:43;102448.75;;;6.36;100.00
40940;BME280;26666;50.156;7.700;2023-02-11T16:50:47;102450.56;;;6.34;100.00
40940;BME280;26666;50.156;7.700;2023-02-11T16:55:53;102441.25;;;6.25;100.00
40940;BME280;26666;50.156;7.700;2023-02-11T17:00:55;102438.72;;;6.22;100.00
40940;BME280;26666;50.156;7.700;2023-02-11T17:05:56;102450.28;;;6.17;100.00
40940;BME280;26666;50.156;7.700;2023-02-11T17:10:58;102445.03;;;6.17;100.00
40940;BME280;26666;50.156;7.700;2023-02-11T17:16:00;102454.03;;;6.09;100.00
40940;BME280;26666;50.156;7.700;2023-02-11T17:21:05;102460.94;;;6.12;100.00
40940;BME280;26666;50.156;7.700;2023-02-11T17:26:07;102461.03;;;6.09;100.00
40940;BME280;26666;50.156;7.700;2023-02-11T17:31:09;102474.25;;;6.06;100.00
40940;BME280;26666;50.156;7.700;2023-02-11T17:36:10;102479.72;;;6.00;100.00
40940;BME280;26666;50.156;7.700;2023-02-11T17:41:12;102483.91;;;6.05;100.00
40940;BME280;26666;50.156;7.700;2023-02-11T17:46:14;102481.38;;;6.02;100.00
40940;BME280;26666;50.156;7.700;2023-02-11T17:56:28;102504.28;;;5.97;100.00
40940;BME280;26666;50.156;7.700;2023-02-11T18:01:31;102498.38;;;5.89;100.00
40940;BME280;26666;50.156;7.700;2023-02-11T18:06:33;102501.81;;;5.91;100.00
40940;BME280;26666;50.156;7.700;2023-02-11T18:11:37;102511.28;;;5.97;100.00
40940;BME280;26666;50.156;7.700;2023-02-11T18:16:39;102511.09;;;6.03;100.00
40940;BME280;26666;50.156;7.700;2023-02-11T18:21:40;102515.56;;;5.99;100.00
40940;BME280;26666;50.156;7.700;2023-02-11T18:26:42;102516.47;;;6.00;100.00
40940;BME280;26666;50.156;7.700;2023-02-11T18:31:44;102507.81;;;5.96;100.00
40940;BME280;26666;50.156;7.700;2023-02-11T18:36:45;102515.84;;;5.90;100.00
40940;BME280;26666;50.156;7.700;2023-02-11T18:41:47;102518.38;;;5.93;100.00
40940;BME280;26666;50.156;7.700;2023-02-11T18:46:49;102509.59;;;5.94;100.00
40940;BME280;26666;50.156;7.700;2023-02-11T18:51:50;102510.69;;;5.87;100.00
40940;BME280;26666;50.156;7.700;2023-02-11T18:56:52;102505.69;;;5.79;100.00
40940;BME280;26666;50.156;7.700;2023-02-11T19:01:53;102508.25;;;5.81;100.00
40940;BME280;26666;50.156;7.700;2023-02-11T19:06:55;102504.06;;;5.75;100.00
40940;BME280;26666;50.156;7.700;2023-02-11T19:11:56;102519.22;;;5.65;100.00
40940;BME280;26666;50.156;7.700;2023-02-11T19:17:01;102519.97;;;5.70;100.00
40940;BME280;26666;50.156;7.700;2023-02-11T19:22:03;102511.13;;;5.73;100.00
40940;BME280;26666;50.156;7.700;2023-02-11T19:27:05;102518.22;;;5.69;100.00
40940;BME280;26666;50.156;7.700;2023-02-11T19:32:06;102525.44;;;5.63;100.00
40940;BME280;26666;50.156;7.700;2023-02-11T19:37:09;102525.66;;;5.55;100.00
40940;BME280;26666;50.156;7.700;2023-02-11T19:42:11;102525.66;;;5.55;100.00
40940;BME280;26666;50.156;7.700;2023-02-11T19:47:13;102529.22;;;5.52;100.00
40940;BME280;26666;50.156;7.700;2023-02-11T19:52:15;102536.34;;;5.49;100.00
40940;BME280;26666;50.156;7.700;2023-02-11T19:57:16;102547.75;;;5.46;100.00
40940;BME280;26666;50.156;7.700;2023-02-11T20:02:18;102550.25;;;5.51;100.00
40940;BME280;26666;50.156;7.700;2023-02-11T20:07:20;102549.69;;;5.69;100.00
40940;BME280;26666;50.156;7.700;2023-02-11T20:12:21;102557.91;;;5.59;100.00
40940;BME280;26666;50.156;7.700;2023-02-11T20:17:23;102556.22;;;5.56;100.00
40940;BME280;26666;50.156;7.700;2023-02-11T20:22:24;102557.13;;;5.55;100.00
40940;BME280;26666;50.156;7.700;2023-02-11T20:27:26;102556.91;;;5.63;100.00
40940;BME280;26666;50.156;7.700;2023-02-11T20:32:27;102570.34;;;5.50;100.00
40940;BME280;26666;50.156;7.700;2023-02-11T20:37:33;102567.63;;;5.55;100.00
40940;BME280;26666;50.156;7.700;2023-02-11T20:42:34;102560.38;;;5.63;100.00
40940;BME280;26666;50.156;7.700;2023-02-11T20:47:36;102562.03;;;5.66;100.00
40940;BME280;26666;50.156;7.700;2023-02-11T20:52:38;102565.00;;;5.55;100.00
40940;BME280;26666;50.156;7.700;2023-02-11T20:57:40;102572.03;;;5.53;100.00
40940;BME280;26666;50.156;7.700;2023-02-11T21:02:41;102568.69;;;5.48;100.00
40940;BME280;26666;50.156;7.700;2023-02-11T21:07:43;102574.94;;;5.44;100.00
40940;BME280;26666;50.156;7.700;2023-02-11T21:12:45;102566.16;;;5.45;100.00
40940;BME280;26666;50.156;7.700;2023-02-11T21:17:50;102567.63;;;5.55;100.00
40940;BME280;26666;50.156;7.700;2023-02-11T21:22:51;102565.19;;;5.49;100.00
40940;BME280;26666;50.156;7.700;2023-02-11T21:27:53;102566.31;;;5.39;100.00
40940;BME280;26666;50.156;7.700;2023-02-11T21:32:57;102580.31;;;5.39;100.00
40940;BME280;26666;50.156;7.700;2023-02-11T21:37:58;102582.06;;;5.39;100.00
40940;BME280;26666;50.156;7.700;2023-02-11T21:43:00;102580.31;;;5.39;100.00
40940;BME280;26666;50.156;7.700;2023-02-11T21:48:01;102587.47;;;5.32;100.00
40940;BME280;26666;50.156;7.700;2023-02-11T21:53:03;102585.75;;;5.31;100.00
40940;BME280;26666;50.156;7.700;2023-02-11T21:58:07;102585.94;;;5.25;100.00
40940;BME280;26666;50.156;7.700;2023-02-11T22:03:09;102583.66;;;5.11;100.00
40940;BME280;26666;50.156;7.700;2023-02-11T22:08:12;102587.06;;;5.15;100.00
40940;BME280;26666;50.156;7.700;2023-02-11T22:13:13;102583.56;;;5.16;100.00
40940;BME280;26666;50.156;7.700;2023-02-11T22:18:15;102589.91;;;5.07;100.00
40940;BME280;26666;50.156;7.700;2023-02-11T22:23:16;102599.59;;;5.04;100.00
40940;BME280;26666;50.156;7.700;2023-02-11T22:28:18;102593.41;;;5.08;100.00
40940;BME280;26666;50.156;7.700;2023-02-11T22:33:20;102613.09;;;5.21;100.00
40940;BME280;26666;50.156;7.700;2023-02-11T22:38:22;102620.91;;;5.24;100.00
40940;BME280;26666;50.156;7.700;2023-02-11T22:43:23;102623.31;;;5.32;100.00
40940;BME280;26666;50.156;7.700;2023-02-11T22:48:25;102615.50;;;5.30;100.00
40940;BME280;26666;50.156;7.700;2023-02-11T22:53:27;102617.16;;;5.33;100.00
40940;BME280;26666;50.156;7.700;2023-02-11T22:58:28;102616.44;;;5.28;100.00
40940;BME280;26666;50.156;7.700;2023-02-11T23:03:30;102624.34;;;5.26;100.00
40940;BME280;26666;50.156;7.700;2023-02-11T23:08:33;102614.66;;;5.28;100.00
40940;BME280;26666;50.156;7.700;2023-02-11T23:13:36;102616.69;;;5.19;100.00
40940;BME280;26666;50.156;7.700;2023-02-11T23:18:39;102613.09;;;5.21;100.00
40940;BME280;26666;50.156;7.700;2023-02-11T23:23:43;102621.72;;;5.26;100.00
40940;BME280;26666;50.156;7.700;2023-02-11T23:28:46;102629.66;;;5.23;100.00
40940;BME280;26666;50.156;7.700;2023-02-11T23:33:48;102625.28;;;5.24;100.00
40940;BME280;26666;50.156;7.700;2023-02-11T23:38:49;102628.63;;;5.29;100.00
40940;BME280;26666;50.156;7.700;2023-02-11T23:43:56;102628.44;;;5.37;100.00
40940;BME280;26666;50.156;7.700;2023-02-11T23:48:57;102624.09;;;5.36;100.00
40940;BME280;26666;50.156;7.700;2023-02-11T23:54:00;102625.38;;;5.21;100.00
40940;BME280;26666;50.156;7.700;2023-02-11T23:59:01;102620.13;;;5.21;100.00
